• Join FlightAware (Why Join?)
  • Login
  • US Flag 
04:47AM EST


 

Airport Tracker/Info


-or-


 

Live Flight TrackerFlight Track Log ✈ FIV606 ✈ 08-May-2013 ✈ KTEB - KSUS

Flight Track Log - Related Links

Times and Time Zones

All times are in EDT time to prevent confusion due to time zone crossing. See the FIV606 flight status page for this flight to view local times or setup timezone preferences in your user account.

Time Position Orientation Groundspeed Altitude Reporting Facility
EDT Latitude Longitude Course Direction KTS MPH feet Rate Location/Type
02:03PM 40.8833 -74.0500 270° West 187 215 1,400  Level New York TRACON
02:04PM 40.9333 -74.0500 360° North 250 288 2,100 1,500 Climbing New York TRACON
02:05PM 40.9000 -74.1333 242° Southwest 237 273 4,400 2,820 Climbing New York TRACON
02:06PM 40.8667 -74.2167 242° Southwest 273 314 7,800 2,400 Climbing New York TRACON
02:07PM 40.8333 -74.3000 242° Southwest 285 328 9,300 2,340 Climbing New York TRACON
02:08PM 40.8333 -74.4167 270° West 314 361 12,500 2,700 Climbing New York TRACON
02:09PM 40.8000 -74.8619 270° West  Level FlightAware Approximate
02:10PM 40.8586 -74.6394 279° West 327 376 17,000  Level New York Center
02:11PM 40.8442 -74.7622 261° West 361 415 17,000 480 Level New York Center
02:12PM 40.8283 -74.9175 262° West 396 456 18,000 1,860 Climbing New York Center
02:13PM 40.8108 -75.0592 261° West 404 465 20,700 2,580 Climbing New York Center
02:14PM 40.7928 -75.2086 261° West 409 471 23,200 2,220 Climbing New York Center
02:15PM 40.7708 -75.3444 258° West 415 478 25,200 1,800 Climbing New York Center
02:16PM 40.7256 -75.4944 248° West 415 478 26,900 1,680 Climbing New York Center
02:17PM 40.6717 -75.6358 243° Southwest 415 478 28,600 1,560 Climbing New York Center
02:18PM 40.6181 -75.7769 243° Southwest 432 497 30,000 1,440 Climbing New York Center
02:19PM 40.5636 -75.9233 244° Southwest 439 505 31,500 1,440 Climbing New York Center
02:20PM 40.5050 -76.0719 243° Southwest 448 516 32,900 1,380 Climbing New York Center
02:21PM 40.4486 -76.2147 243° Southwest 448 516 34,300 1,380 Climbing New York Center
02:22PM 40.3958 -76.3606 245° Southwest 453 521 35,700 1,380 Climbing New York Center
02:23PM 40.3369 -76.5028 242° Southwest 453 521 37,100 1,320 Climbing New York Center
02:24PM 40.2844 -76.6400 243° Southwest 440 506 38,400 1,080 Climbing New York Center
02:25PM 40.2297 -76.7714 241° Southwest 427 491 39,300 780 Climbing New York Center
02:26PM 40.1808 -76.9111 245° Southwest 422 486 40,000 300 Climbing New York Center
02:27PM 40.1750 -77.0628 267° West 408 470 40,000  Level New York Center
02:28PM 40.1747 -77.2231 270° West 422 486 40,000  Level New York Center
02:30PM 40.1789 -77.5531 271° West 462 532 40,000  Level Cleveland Center
02:31PM 40.1789 -77.7108 270° West 452 520 40,000  Level Cleveland Center
02:32PM 40.1789 -77.8739 270° West 447 514 40,000  Level Cleveland Center
02:33PM 40.1739 -78.0208 267° West 454 522 40,000  Level Cleveland Center
02:34PM 40.1711 -78.1783 269° West 454 522 40,000  Level Cleveland Center
02:35PM 40.1703 -78.3414 270° West 454 522 40,000  Level Cleveland Center
02:36PM 40.1692 -78.5019 270° West 448 516 40,000  Level Cleveland Center
02:37PM 40.1678 -78.6622 269° West 448 516 40,000  Level Cleveland Center
02:38PM 40.1661 -78.8225 269° West 443 510 40,000  Level Cleveland Center
02:39PM 40.1622 -78.9803 268° West 443 510 40,000  Level Cleveland Center
02:40PM 40.1603 -79.1461 269° West 443 510 40,000  Level Cleveland Center
02:41PM 40.1603 -79.3200 270° West 448 516 40,000  Level Cleveland Center
02:42PM 40.1575 -79.4639 269° West 448 516 40,000  Level Cleveland Center
02:43PM 40.1547 -79.6242 269° West 448 516 40,000  Level Cleveland Center
02:44PM 40.1519 -79.7844 269° West 443 510 40,000  Level Cleveland Center
02:45PM 40.1489 -79.9447 269° West 443 510 40,000  Level Cleveland Center
02:46PM 40.1433 -80.1050 267° West 443 510 40,000  Level Cleveland Center
02:47PM 40.1397 -80.2653 268° West 443 510 40,000  Level Cleveland Center
02:48PM 40.1358 -80.4256 268° West 443 510 40,000  Level Cleveland Center
02:49PM 40.1317 -80.5858 268° West 443 510 40,000  Level Cleveland Center
02:50PM 40.1275 -80.7461 268° West 443 510 40,000  Level Cleveland Center
02:51PM 40.1208 -80.9061 267° West 443 510 40,000  Level Cleveland Center
02:53PM 40.1094 -81.1564 267° West 440 506 40,000  Level Indianapolis Center
02:54PM 40.1042 -81.3178 268° West 440 506 40,000  Level Indianapolis Center
02:55PM 40.0989 -81.4794 268° West 442 509 40,000  Level Indianapolis Center
02:56PM 40.0917 -81.6408 267° West 442 509 40,000  Level Indianapolis Center
02:57PM 40.0853 -81.8189 267° West 443 510 40,000  Level Indianapolis Center
02:58PM 40.0789 -81.9833 267° West 450 518 40,000  Level Indianapolis Center
02:59PM 40.0722 -82.1450 267° West 445 512 40,000  Level Indianapolis Center
03:00PM 40.0653 -82.3083 267° West 446 513 40,000  Level Indianapolis Center
03:01PM 40.0578 -82.4697 267° West 443 510 40,000  Level Indianapolis Center
03:02PM 40.0503 -82.6314 267° West 443 510 40,000  Level Indianapolis Center
03:03PM 40.0417 -82.8178 267° West 439 505 40,000  Level Indianapolis Center
03:04PM 40.0336 -82.9781 266° West 440 506 40,000  Level Indianapolis Center
03:05PM 40.0256 -83.1372 266° West 438 504 40,000  Level Indianapolis Center
03:06PM 40.0175 -83.2961 266° West 438 504 40,000  Level Indianapolis Center
03:07PM 40.0094 -83.4536 266° West 438 504 40,000  Level Indianapolis Center
03:08PM 40.0006 -83.6106 266° West 440 506 40,000  Level Indianapolis Center
03:09PM 39.9903 -83.7942 266° West 439 505 40,000  Level Indianapolis Center
03:10PM 39.9806 -83.9531 265° West 437 503 40,000  Level Indianapolis Center
03:11PM 39.9714 -84.1111 266° West 437 503 40,000  Level Indianapolis Center
03:12PM 39.9619 -84.2686 266° West 434 499 40,000  Level Indianapolis Center
03:13PM 39.9514 -84.4269 265° West 436 502 40,000  Level Indianapolis Center
03:14PM 39.9417 -84.5850 265° West 435 501 40,000  Level Indianapolis Center
03:16PM 39.9297 -84.7683 265° West 433 498 40,000  Level Indianapolis Center
03:17PM 39.9200 -84.9061 265° West 434 499 40,000  Level Indianapolis Center
03:18PM 39.9094 -85.0942 266° West 436 502 40,000  Level Indianapolis Center
03:19PM 39.8972 -85.2506 264° West 435 501 40,000  Level Indianapolis Center
03:20PM 39.8869 -85.4064 265° West 434 499 40,000  Level Indianapolis Center
03:21PM 39.8750 -85.5614 264° West 433 498 40,000  Level Indianapolis Center
03:22PM 39.8644 -85.7147 265° West 429 494 40,000  Level Indianapolis Center
03:23PM 39.8536 -85.8678 265° West 428 493 40,000  Level Indianapolis Center
03:24PM 39.8397 -86.0500 264° West 425 489 40,000  Level Indianapolis Center
03:25PM 39.8272 -86.2039 264° West 424 488 40,000  Level Indianapolis Center
03:26PM 39.8142 -86.3578 264° West 427 491 40,000  Level Indianapolis Center
03:27PM 39.7894 -86.5272 259° West 433 498 40,000  Level Indianapolis Center
03:28PM 39.7658 -86.6800 259° West 435 501 40,000  Level Indianapolis Center
03:29PM 39.7422 -86.8328 259° West 434 499 40,000  Level Indianapolis Center
03:30PM 39.7178 -86.9872 258° West 438 504 40,000  Level Indianapolis Center
03:31PM 39.6925 -87.1408 258° West 439 505 40,000  Level Indianapolis Center
03:32PM 39.6633 -87.3242 258° West 434 499 40,000 -240 Level Indianapolis Center
03:33PM 39.6383 -87.4761 258° West 433 498 39,600 -1,020 Descending Indianapolis Center
03:34PM 39.6133 -87.6258 258° West 427 491 38,000 -2,100 Descending Indianapolis Center
03:35PM 39.5892 -87.7717 258° West 417 480 35,300 -2,520 Descending Indianapolis Center
03:36PM 39.5650 -87.9144 258° West 416 479 33,000 -2,040 Descending Kansas City Center
03:37PM 39.5400 -88.0636 258° West 420 483 31,200 -1,920 Descending Kansas City Center
03:38PM 39.5094 -88.2492 258° West 433 498 29,100 -1,860 Descending Kansas City Center
03:39PM 39.4828 -88.4033 257° West 437 503 27,400 -1,680 Descending Kansas City Center
03:40PM 39.4561 -88.5519 257° West 431 496 25,700 -1,500 Descending Kansas City Center
03:41PM 39.4331 -88.6894 258° West 429 494 24,400 -1,260 Descending Kansas City Center
03:42PM 39.4061 -88.8414 257° West 416 479 23,200 -1,140 Descending Kansas City Center
03:43PM 39.3819 -88.9814 257° West 405 466 22,100 -1,500 Descending Kansas City Center
03:44PM 39.3514 -89.1467 257° West 398 458 20,200 -1,920 Descending Kansas City Center
03:45PM 39.3278 -89.2794 257° West 387 445 18,200 -1,920 Descending Kansas City Center
03:46PM 39.3047 -89.4106 257° West 379 436 16,300 -1,800 Descending Kansas City Center
03:48PM 39.2808 -89.5389 257° West 373 429 14,500 -1,740 Descending Kansas City Center
03:49PM 39.2589 -89.6608 257° West 358 412 12,800 -1,260 Descending Kansas City Center
03:50PM 39.2225 -89.7697 247° West 345 397 12,000 -420 Descending Kansas City Center
03:51PM 39.1594 -89.8986 238° Southwest 354 407 12,000  Level Kansas City Center
03:52PM 39.1069 -90.0014 237° Southwest 351 404 12,000  Level Kansas City Center
03:53PM 39.0469 -90.0958 231° Southwest 349 402 12,000 -840 Level Kansas City Center
03:54PM 38.9772 -90.1592 215° Southwest 319 367 10,300 -1,860 Descending Kansas City Center
03:55PM 38.9117 -90.2183 215° Southwest 302 348 8,200 -2,100 Descending Kansas City Center
03:56PM 38.8497 -90.2742 215° Southwest 287 330 6,000 -2,040 Descending Kansas City Center
03:57PM 38.7778 -90.3389 215° Southwest 273 314 4,000 -1,020 Descending Kansas City Center
03:58PM 38.7189 -90.3936 216° Southwest 269 310 4,000 -540 Level Kansas City Center
03:59PM 38.6875 -90.4686 242° Southwest 260 299 3,000 -1,140 Descending Kansas City Center
04:00PM 38.6736 -90.5639 259° West 240 276 1,700 -1,020 Descending Kansas City Center
04:01PM 38.6653 -90.6150 258° West 178 205 900 -600 Descending Kansas City Center
04:02PM 38.6594 -90.6511 258° West 131 151 500 -420 Descending Kansas City Center